sensor_id;sensor_type;location;lat;lon;timestamp;P1;durP1;ratioP1;P2;durP2;ratioP2
69534;SDS011;56754;51.568;5.048;2022-08-03T00:01:22;5.10;;;1.47;;
69534;SDS011;56754;51.568;5.048;2022-08-03T00:03:48;6.33;;;1.73;;
69534;SDS011;56754;51.568;5.048;2022-08-03T00:06:13;6.13;;;1.50;;
69534;SDS011;56754;51.568;5.048;2022-08-03T00:08:38;5.50;;;1.57;;
69534;SDS011;56754;51.568;5.048;2022-08-03T00:11:03;3.90;;;1.50;;
69534;SDS011;56754;51.568;5.048;2022-08-03T00:13:29;5.68;;;1.63;;
69534;SDS011;56754;51.568;5.048;2022-08-03T00:15:54;4.80;;;1.40;;
69534;SDS011;56754;51.568;5.048;2022-08-03T00:18:20;6.30;;;1.73;;
69534;SDS011;56754;51.568;5.048;2022-08-03T00:20:45;6.63;;;1.48;;
69534;SDS011;56754;51.568;5.048;2022-08-03T00:23:10;5.03;;;1.70;;
69534;SDS011;56754;51.568;5.048;2022-08-03T00:25:36;5.23;;;1.50;;
69534;SDS011;56754;51.568;5.048;2022-08-03T00:28:03;5.32;;;1.40;;
69534;SDS011;56754;51.568;5.048;2022-08-03T00:30:29;5.55;;;1.70;;
69534;SDS011;56754;51.568;5.048;2022-08-03T00:32:55;4.97;;;1.63;;
69534;SDS011;56754;51.568;5.048;2022-08-03T00:35:21;5.70;;;1.60;;
69534;SDS011;56754;51.568;5.048;2022-08-03T00:37:46;6.27;;;1.77;;
69534;SDS011;56754;51.568;5.048;2022-08-03T00:40:12;5.05;;;1.50;;
69534;SDS011;56754;51.568;5.048;2022-08-03T00:42:45;5.87;;;1.27;;
69534;SDS011;56754;51.568;5.048;2022-08-03T00:45:11;5.70;;;1.80;;
69534;SDS011;56754;51.568;5.048;2022-08-03T00:47:37;5.53;;;1.50;;
69534;SDS011;56754;51.568;5.048;2022-08-03T00:50:02;4.73;;;1.70;;
69534;SDS011;56754;51.568;5.048;2022-08-03T00:52:28;6.20;;;1.73;;
69534;SDS011;56754;51.568;5.048;2022-08-03T00:54:53;6.43;;;1.80;;
69534;SDS011;56754;51.568;5.048;2022-08-03T00:57:19;5.30;;;1.70;;
69534;SDS011;56754;51.568;5.048;2022-08-03T00:59:44;7.15;;;1.85;;
69534;SDS011;56754;51.568;5.048;2022-08-03T01:02:10;6.13;;;1.80;;
69534;SDS011;56754;51.568;5.048;2022-08-03T01:04:35;5.27;;;1.73;;
69534;SDS011;56754;51.568;5.048;2022-08-03T01:07:05;6.15;;;1.55;;
69534;SDS011;56754;51.568;5.048;2022-08-03T01:09:40;6.30;;;1.80;;
69534;SDS011;56754;51.568;5.048;2022-08-03T01:15:30;5.75;;;1.63;;
69534;SDS011;56754;51.568;5.048;2022-08-03T01:20:50;7.00;;;1.85;;
69534;SDS011;56754;51.568;5.048;2022-08-03T01:31:52;8.85;;;1.92;;
69534;SDS011;56754;51.568;5.048;2022-08-03T01:34:30;6.38;;;1.88;;
69534;SDS011;56754;51.568;5.048;2022-08-03T01:36:59;5.93;;;1.67;;
69534;SDS011;56754;51.568;5.048;2022-08-03T01:39:29;5.97;;;2.05;;
69534;SDS011;56754;51.568;5.048;2022-08-03T01:41:57;4.85;;;1.52;;
69534;SDS011;56754;51.568;5.048;2022-08-03T01:44:25;6.63;;;1.85;;
69534;SDS011;56754;51.568;5.048;2022-08-03T01:46:55;5.30;;;1.70;;
69534;SDS011;56754;51.568;5.048;2022-08-03T01:49:23;5.53;;;1.67;;
69534;SDS011;56754;51.568;5.048;2022-08-03T01:51:51;6.80;;;1.83;;
69534;SDS011;56754;51.568;5.048;2022-08-03T01:54:17;5.00;;;1.75;;
69534;SDS011;56754;51.568;5.048;2022-08-03T01:56:44;8.05;;;1.80;;
69534;SDS011;56754;51.568;5.048;2022-08-03T01:59:10;5.75;;;1.63;;
69534;SDS011;56754;51.568;5.048;2022-08-03T02:01:38;4.83;;;1.73;;
69534;SDS011;56754;51.568;5.048;2022-08-03T02:04:05;5.90;;;1.48;;
69534;SDS011;56754;51.568;5.048;2022-08-03T02:06:32;6.30;;;1.85;;
69534;SDS011;56754;51.568;5.048;2022-08-03T02:08:59;6.80;;;1.95;;
69534;SDS011;56754;51.568;5.048;2022-08-03T02:11:27;6.40;;;2.10;;
69534;SDS011;56754;51.568;5.048;2022-08-03T02:13:57;6.03;;;2.00;;
69534;SDS011;56754;51.568;5.048;2022-08-03T02:16:24;6.93;;;1.90;;
69534;SDS011;56754;51.568;5.048;2022-08-03T02:18:52;5.68;;;1.67;;
69534;SDS011;56754;51.568;5.048;2022-08-03T02:21:18;5.85;;;1.98;;
69534;SDS011;56754;51.568;5.048;2022-08-03T02:23:45;4.45;;;1.60;;
69534;SDS011;56754;51.568;5.048;2022-08-03T02:26:11;5.37;;;1.70;;
69534;SDS011;56754;51.568;5.048;2022-08-03T02:28:40;6.63;;;1.67;;
69534;SDS011;56754;51.568;5.048;2022-08-03T02:31:13;4.25;;;1.60;;
69534;SDS011;56754;51.568;5.048;2022-08-03T02:33:43;7.20;;;1.92;;
69534;SDS011;56754;51.568;5.048;2022-08-03T02:36:14;5.53;;;1.88;;
69534;SDS011;56754;51.568;5.048;2022-08-03T02:38:43;5.70;;;1.88;;
69534;SDS011;56754;51.568;5.048;2022-08-03T02:41:17;5.37;;;1.93;;
69534;SDS011;56754;51.568;5.048;2022-08-03T02:43:47;6.18;;;1.60;;
69534;SDS011;56754;51.568;5.048;2022-08-03T02:46:16;6.13;;;2.20;;
69534;SDS011;56754;51.568;5.048;2022-08-03T02:48:43;6.03;;;2.00;;
69534;SDS011;56754;51.568;5.048;2022-08-03T02:51:10;5.82;;;1.90;;
69534;SDS011;56754;51.568;5.048;2022-08-03T02:53:35;7.70;;;2.00;;
69534;SDS011;56754;51.568;5.048;2022-08-03T02:56:01;6.73;;;2.10;;
69534;SDS011;56754;51.568;5.048;2022-08-03T02:58:28;5.35;;;1.73;;
69534;SDS011;56754;51.568;5.048;2022-08-03T03:00:55;4.93;;;1.80;;
69534;SDS011;56754;51.568;5.048;2022-08-03T03:03:21;5.43;;;1.73;;
69534;SDS011;56754;51.568;5.048;2022-08-03T03:05:48;4.53;;;1.53;;
69534;SDS011;56754;51.568;5.048;2022-08-03T03:08:14;7.03;;;2.00;;
69534;SDS011;56754;51.568;5.048;2022-08-03T03:10:41;6.53;;;2.08;;
69534;SDS011;56754;51.568;5.048;2022-08-03T03:13:07;6.97;;;1.98;;
69534;SDS011;56754;51.568;5.048;2022-08-03T03:15:34;4.38;;;1.48;;
69534;SDS011;56754;51.568;5.048;2022-08-03T03:18:01;5.90;;;1.90;;
69534;SDS011;56754;51.568;5.048;2022-08-03T03:20:28;6.97;;;1.90;;
69534;SDS011;56754;51.568;5.048;2022-08-03T03:22:54;6.75;;;1.75;;
69534;SDS011;56754;51.568;5.048;2022-08-03T03:25:21;4.35;;;1.65;;
69534;SDS011;56754;51.568;5.048;2022-08-03T03:27:46;5.82;;;1.58;;
69534;SDS011;56754;51.568;5.048;2022-08-03T03:30:12;6.27;;;2.07;;
69534;SDS011;56754;51.568;5.048;2022-08-03T03:32:38;6.20;;;1.80;;
69534;SDS011;56754;51.568;5.048;2022-08-03T03:35:04;5.77;;;1.60;;
69534;SDS011;56754;51.568;5.048;2022-08-03T03:37:30;8.57;;;2.40;;
69534;SDS011;56754;51.568;5.048;2022-08-03T03:39:55;6.33;;;1.60;;
69534;SDS011;56754;51.568;5.048;2022-08-03T03:42:21;8.13;;;2.10;;
69534;SDS011;56754;51.568;5.048;2022-08-03T03:44:46;5.63;;;1.70;;
69534;SDS011;56754;51.568;5.048;2022-08-03T03:47:12;4.22;;;1.60;;
69534;SDS011;56754;51.568;5.048;2022-08-03T03:49:38;8.30;;;2.00;;
69534;SDS011;56754;51.568;5.048;2022-08-03T03:52:04;5.25;;;1.60;;
69534;SDS011;56754;51.568;5.048;2022-08-03T03:54:39;6.28;;;1.95;;
69534;SDS011;56754;51.568;5.048;2022-08-03T03:57:06;4.82;;;1.75;;
69534;SDS011;56754;51.568;5.048;2022-08-03T03:59:31;5.07;;;1.70;;
69534;SDS011;56754;51.568;5.048;2022-08-03T04:01:57;6.70;;;1.87;;
69534;SDS011;56754;51.568;5.048;2022-08-03T04:04:22;6.20;;;1.60;;
69534;SDS011;56754;51.568;5.048;2022-08-03T04:06:48;5.80;;;1.77;;
69534;SDS011;56754;51.568;5.048;2022-08-03T04:09:14;7.38;;;1.90;;
69534;SDS011;56754;51.568;5.048;2022-08-03T04:11:45;5.77;;;1.80;;
69534;SDS011;56754;51.568;5.048;2022-08-03T04:14:26;6.68;;;1.67;;
69534;SDS011;56754;51.568;5.048;2022-08-03T04:16:55;6.18;;;1.70;;
69534;SDS011;56754;51.568;5.048;2022-08-03T04:19:36;6.72;;;1.85;;
69534;SDS011;56754;51.568;5.048;2022-08-03T04:22:06;6.97;;;1.63;;
69534;SDS011;56754;51.568;5.048;2022-08-03T04:24:45;7.50;;;1.80;;
69534;SDS011;56754;51.568;5.048;2022-08-03T04:27:19;6.40;;;1.98;;
69534;SDS011;56754;51.568;5.048;2022-08-03T04:29:48;6.90;;;1.50;;
69534;SDS011;56754;51.568;5.048;2022-08-03T04:32:16;7.43;;;1.63;;
69534;SDS011;56754;51.568;5.048;2022-08-03T04:34:43;6.73;;;1.60;;
69534;SDS011;56754;51.568;5.048;2022-08-03T04:37:12;6.63;;;1.83;;
69534;SDS011;56754;51.568;5.048;2022-08-03T04:39:42;6.90;;;1.77;;
69534;SDS011;56754;51.568;5.048;2022-08-03T04:42:08;5.53;;;1.70;;
69534;SDS011;56754;51.568;5.048;2022-08-03T04:44:37;6.55;;;1.63;;
69534;SDS011;56754;51.568;5.048;2022-08-03T04:47:04;4.60;;;1.60;;
69534;SDS011;56754;51.568;5.048;2022-08-03T04:49:30;5.83;;;1.80;;
69534;SDS011;56754;51.568;5.048;2022-08-03T04:51:56;4.35;;;1.50;;
69534;SDS011;56754;51.568;5.048;2022-08-03T04:54:22;7.30;;;1.80;;
69534;SDS011;56754;51.568;5.048;2022-08-03T04:56:47;6.50;;;2.00;;
69534;SDS011;56754;51.568;5.048;2022-08-03T04:59:13;6.53;;;1.77;;
69534;SDS011;56754;51.568;5.048;2022-08-03T05:01:38;6.35;;;1.63;;
69534;SDS011;56754;51.568;5.048;2022-08-03T05:04:04;5.70;;;1.53;;
69534;SDS011;56754;51.568;5.048;2022-08-03T05:06:30;6.57;;;1.70;;
69534;SDS011;56754;51.568;5.048;2022-08-03T05:08:55;6.53;;;2.17;;
69534;SDS011;56754;51.568;5.048;2022-08-03T05:11:20;4.93;;;1.50;;
69534;SDS011;56754;51.568;5.048;2022-08-03T05:13:46;6.53;;;1.57;;
69534;SDS011;56754;51.568;5.048;2022-08-03T05:16:12;7.65;;;1.70;;
69534;SDS011;56754;51.568;5.048;2022-08-03T05:18:38;7.40;;;1.80;;
69534;SDS011;56754;51.568;5.048;2022-08-03T05:21:03;4.67;;;1.60;;
69534;SDS011;56754;51.568;5.048;2022-08-03T05:23:28;8.33;;;1.83;;
69534;SDS011;56754;51.568;5.048;2022-08-03T05:25:54;5.30;;;1.70;;
69534;SDS011;56754;51.568;5.048;2022-08-03T05:28:19;6.23;;;1.70;;
69534;SDS011;56754;51.568;5.048;2022-08-03T05:30:44;7.10;;;1.63;;
69534;SDS011;56754;51.568;5.048;2022-08-03T05:33:10;5.13;;;1.60;;
69534;SDS011;56754;51.568;5.048;2022-08-03T05:35:35;5.27;;;1.50;;
69534;SDS011;56754;51.568;5.048;2022-08-03T05:38:02;7.40;;;1.80;;
69534;SDS011;56754;51.568;5.048;2022-08-03T05:40:27;7.77;;;1.70;;
69534;SDS011;56754;51.568;5.048;2022-08-03T05:42:52;6.07;;;1.50;;
69534;SDS011;56754;51.568;5.048;2022-08-03T05:45:18;6.10;;;1.57;;
69534;SDS011;56754;51.568;5.048;2022-08-03T05:47:43;6.07;;;1.50;;
69534;SDS011;56754;51.568;5.048;2022-08-03T05:50:12;6.05;;;1.55;;
69534;SDS011;56754;51.568;5.048;2022-08-03T05:52:38;5.67;;;1.50;;
69534;SDS011;56754;51.568;5.048;2022-08-03T05:55:05;6.30;;;1.52;;
69534;SDS011;56754;51.568;5.048;2022-08-03T05:57:30;5.78;;;1.70;;
69534;SDS011;56754;51.568;5.048;2022-08-03T05:59:56;6.33;;;1.30;;
69534;SDS011;56754;51.568;5.048;2022-08-03T06:02:21;5.10;;;1.50;;
69534;SDS011;56754;51.568;5.048;2022-08-03T06:04:46;8.13;;;1.50;;
69534;SDS011;56754;51.568;5.048;2022-08-03T06:07:12;5.90;;;1.53;;
69534;SDS011;56754;51.568;5.048;2022-08-03T06:09:37;4.87;;;1.50;;
69534;SDS011;56754;51.568;5.048;2022-08-03T06:12:02;6.38;;;1.40;;
69534;SDS011;56754;51.568;5.048;2022-08-03T06:14:27;5.13;;;1.20;;
69534;SDS011;56754;51.568;5.048;2022-08-03T06:16:53;5.63;;;1.30;;
69534;SDS011;56754;51.568;5.048;2022-08-03T06:19:18;6.53;;;1.30;;
69534;SDS011;56754;51.568;5.048;2022-08-03T06:21:43;6.00;;;1.50;;
69534;SDS011;56754;51.568;5.048;2022-08-03T06:24:08;9.50;;;1.77;;
69534;SDS011;56754;51.568;5.048;2022-08-03T06:26:34;6.17;;;1.50;;
69534;SDS011;56754;51.568;5.048;2022-08-03T06:28:59;6.43;;;1.50;;
69534;SDS011;56754;51.568;5.048;2022-08-03T06:31:25;6.00;;;1.25;;
69534;SDS011;56754;51.568;5.048;2022-08-03T06:33:51;7.00;;;1.60;;
69534;SDS011;56754;51.568;5.048;2022-08-03T06:36:16;9.13;;;1.57;;
69534;SDS011;56754;51.568;5.048;2022-08-03T06:38:41;7.63;;;1.50;;
69534;SDS011;56754;51.568;5.048;2022-08-03T06:41:06;7.70;;;1.60;;
69534;SDS011;56754;51.568;5.048;2022-08-03T06:43:32;9.23;;;1.60;;
69534;SDS011;56754;51.568;5.048;2022-08-03T06:45:57;7.80;;;1.30;;
69534;SDS011;56754;51.568;5.048;2022-08-03T06:48:22;6.43;;;1.27;;
69534;SDS011;56754;51.568;5.048;2022-08-03T06:50:47;8.87;;;1.30;;
69534;SDS011;56754;51.568;5.048;2022-08-03T06:53:12;7.53;;;1.70;;
69534;SDS011;56754;51.568;5.048;2022-08-03T06:55:38;8.03;;;1.87;;
69534;SDS011;56754;51.568;5.048;2022-08-03T06:58:03;6.70;;;1.70;;
69534;SDS011;56754;51.568;5.048;2022-08-03T07:00:28;6.53;;;1.47;;
69534;SDS011;56754;51.568;5.048;2022-08-03T07:02:53;4.78;;;1.15;;
69534;SDS011;56754;51.568;5.048;2022-08-03T07:05:19;8.53;;;1.30;;
69534;SDS011;56754;51.568;5.048;2022-08-03T07:07:44;9.07;;;1.50;;
69534;SDS011;56754;51.568;5.048;2022-08-03T07:10:09;6.53;;;1.40;;
69534;SDS011;56754;51.568;5.048;2022-08-03T07:12:35;11.73;;;1.70;;
69534;SDS011;56754;51.568;5.048;2022-08-03T07:15:00;6.53;;;1.50;;
69534;SDS011;56754;51.568;5.048;2022-08-03T07:17:26;8.00;;;1.48;;
69534;SDS011;56754;51.568;5.048;2022-08-03T07:19:52;8.43;;;1.67;;
69534;SDS011;56754;51.568;5.048;2022-08-03T07:22:18;8.20;;;1.70;;
69534;SDS011;56754;51.568;5.048;2022-08-03T07:24:43;11.33;;;1.70;;
69534;SDS011;56754;51.568;5.048;2022-08-03T07:27:09;9.23;;;1.40;;
69534;SDS011;56754;51.568;5.048;2022-08-03T07:29:34;9.60;;;1.65;;
69534;SDS011;56754;51.568;5.048;2022-08-03T07:32:01;11.77;;;1.63;;
69534;SDS011;56754;51.568;5.048;2022-08-03T07:34:27;13.80;;;2.20;;
69534;SDS011;56754;51.568;5.048;2022-08-03T07:36:52;7.95;;;1.70;;
69534;SDS011;56754;51.568;5.048;2022-08-03T07:39:18;8.30;;;1.80;;
69534;SDS011;56754;51.568;5.048;2022-08-03T07:41:43;9.83;;;1.77;;
69534;SDS011;56754;51.568;5.048;2022-08-03T07:44:08;8.77;;;1.80;;
69534;SDS011;56754;51.568;5.048;2022-08-03T07:46:34;9.27;;;1.90;;
69534;SDS011;56754;51.568;5.048;2022-08-03T07:48:59;10.67;;;1.70;;
69534;SDS011;56754;51.568;5.048;2022-08-03T07:51:24;8.87;;;2.10;;
69534;SDS011;56754;51.568;5.048;2022-08-03T07:53:49;8.47;;;1.60;;
69534;SDS011;56754;51.568;5.048;2022-08-03T07:56:15;9.27;;;1.70;;
69534;SDS011;56754;51.568;5.048;2022-08-03T07:58:40;9.17;;;1.57;;
69534;SDS011;56754;51.568;5.048;2022-08-03T08:01:05;8.10;;;1.70;;
69534;SDS011;56754;51.568;5.048;2022-08-03T08:03:30;7.93;;;1.50;;
69534;SDS011;56754;51.568;5.048;2022-08-03T08:05:56;10.63;;;1.80;;
69534;SDS011;56754;51.568;5.048;2022-08-03T08:08:21;8.87;;;1.50;;
69534;SDS011;56754;51.568;5.048;2022-08-03T08:10:46;10.20;;;1.73;;
69534;SDS011;56754;51.568;5.048;2022-08-03T08:13:12;10.77;;;1.90;;
69534;SDS011;56754;51.568;5.048;2022-08-03T08:15:37;9.90;;;1.60;;
69534;SDS011;56754;51.568;5.048;2022-08-03T08:18:02;11.03;;;2.20;;
69534;SDS011;56754;51.568;5.048;2022-08-03T08:20:30;9.33;;;1.73;;
69534;SDS011;56754;51.568;5.048;2022-08-03T08:22:58;10.30;;;1.70;;
69534;SDS011;56754;51.568;5.048;2022-08-03T08:25:24;10.15;;;1.70;;
69534;SDS011;56754;51.568;5.048;2022-08-03T08:27:50;8.50;;;1.65;;
69534;SDS011;56754;51.568;5.048;2022-08-03T08:30:16;9.33;;;1.67;;
69534;SDS011;56754;51.568;5.048;2022-08-03T08:32:43;8.48;;;2.00;;
69534;SDS011;56754;51.568;5.048;2022-08-03T08:35:10;12.17;;;1.90;;
69534;SDS011;56754;51.568;5.048;2022-08-03T08:37:36;8.93;;;1.77;;
69534;SDS011;56754;51.568;5.048;2022-08-03T08:40:01;7.97;;;2.10;;
69534;SDS011;56754;51.568;5.048;2022-08-03T08:42:28;10.40;;;1.60;;
69534;SDS011;56754;51.568;5.048;2022-08-03T08:44:55;11.18;;;1.65;;
69534;SDS011;56754;51.568;5.048;2022-08-03T08:47:23;12.00;;;1.83;;
69534;SDS011;56754;51.568;5.048;2022-08-03T08:49:53;14.32;;;1.92;;
69534;SDS011;56754;51.568;5.048;2022-08-03T08:52:26;14.13;;;2.03;;
69534;SDS011;56754;51.568;5.048;2022-08-03T08:54:56;6.55;;;1.40;;
69534;SDS011;56754;51.568;5.048;2022-08-03T08:57:25;10.07;;;1.80;;
69534;SDS011;56754;51.568;5.048;2022-08-03T08:59:53;9.02;;;1.40;;
69534;SDS011;56754;51.568;5.048;2022-08-03T09:02:19;8.85;;;1.58;;
69534;SDS011;56754;51.568;5.048;2022-08-03T09:04:44;9.17;;;1.57;;
69534;SDS011;56754;51.568;5.048;2022-08-03T09:07:09;13.57;;;1.97;;
69534;SDS011;56754;51.568;5.048;2022-08-03T09:09:35;7.50;;;1.60;;
69534;SDS011;56754;51.568;5.048;2022-08-03T09:12:00;10.87;;;1.93;;
69534;SDS011;56754;51.568;5.048;2022-08-03T09:14:25;7.10;;;1.40;;
69534;SDS011;56754;51.568;5.048;2022-08-03T09:16:54;8.83;;;1.60;;
69534;SDS011;56754;51.568;5.048;2022-08-03T09:19:21;8.93;;;1.58;;
69534;SDS011;56754;51.568;5.048;2022-08-03T09:21:46;7.93;;;1.47;;
69534;SDS011;56754;51.568;5.048;2022-08-03T09:24:31;5.32;;;1.35;;
69534;SDS011;56754;51.568;5.048;2022-08-03T09:26:56;6.80;;;1.30;;
69534;SDS011;56754;51.568;5.048;2022-08-03T09:29:22;8.87;;;1.47;;
69534;SDS011;56754;51.568;5.048;2022-08-03T09:31:47;7.47;;;1.30;;
69534;SDS011;56754;51.568;5.048;2022-08-03T09:34:13;3.87;;;1.10;;
69534;SDS011;56754;51.568;5.048;2022-08-03T09:36:44;4.55;;;1.17;;
69534;SDS011;56754;51.568;5.048;2022-08-03T09:42:34;8.13;;;1.23;;
69534;SDS011;56754;51.568;5.048;2022-08-03T09:44:39;10.33;;;1.50;;
69534;SDS011;56754;51.568;5.048;2022-08-03T09:47:09;11.93;;;1.70;;
69534;SDS011;56754;51.568;5.048;2022-08-03T09:49:35;5.28;;;1.20;;
69534;SDS011;56754;51.568;5.048;2022-08-03T09:52:10;5.72;;;1.00;;
69534;SDS011;56754;51.568;5.048;2022-08-03T09:54:37;9.00;;;1.50;;
69534;SDS011;56754;51.568;5.048;2022-08-03T09:57:03;11.33;;;1.40;;
69534;SDS011;56754;51.568;5.048;2022-08-03T09:59:29;5.63;;;1.30;;
69534;SDS011;56754;51.568;5.048;2022-08-03T10:01:56;5.95;;;1.30;;
69534;SDS011;56754;51.568;5.048;2022-08-03T10:04:22;6.40;;;1.02;;
69534;SDS011;56754;51.568;5.048;2022-08-03T10:07:02;6.88;;;1.20;;
69534;SDS011;56754;51.568;5.048;2022-08-03T10:09:31;8.00;;;1.33;;
69534;SDS011;56754;51.568;5.048;2022-08-03T10:11:57;6.15;;;1.42;;
69534;SDS011;56754;51.568;5.048;2022-08-03T10:14:31;5.05;;;1.50;;
69534;SDS011;56754;51.568;5.048;2022-08-03T10:16:57;5.47;;;1.15;;
69534;SDS011;56754;51.568;5.048;2022-08-03T10:19:23;5.67;;;1.20;;
69534;SDS011;56754;51.568;5.048;2022-08-03T10:21:49;4.57;;;1.10;;
69534;SDS011;56754;51.568;5.048;2022-08-03T10:24:23;10.65;;;1.67;;
69534;SDS011;56754;51.568;5.048;2022-08-03T10:26:49;7.90;;;1.50;;
69534;SDS011;56754;51.568;5.048;2022-08-03T10:29:21;7.63;;;1.30;;
69534;SDS011;56754;51.568;5.048;2022-08-03T10:31:52;6.03;;;1.40;;
69534;SDS011;56754;51.568;5.048;2022-08-03T10:34:24;5.50;;;1.40;;
69534;SDS011;56754;51.568;5.048;2022-08-03T10:36:51;5.20;;;1.13;;
69534;SDS011;56754;51.568;5.048;2022-08-03T10:39:23;3.83;;;1.20;;
69534;SDS011;56754;51.568;5.048;2022-08-03T10:41:53;4.15;;;1.30;;
69534;SDS011;56754;51.568;5.048;2022-08-03T10:44:22;3.83;;;0.88;;
69534;SDS011;56754;51.568;5.048;2022-08-03T10:46:48;5.10;;;1.17;;
69534;SDS011;56754;51.568;5.048;2022-08-03T10:49:15;3.78;;;0.98;;
69534;SDS011;56754;51.568;5.048;2022-08-03T10:51:43;4.77;;;1.20;;
69534;SDS011;56754;51.568;5.048;2022-08-03T10:57:27;4.82;;;1.60;;
69534;SDS011;56754;51.568;5.048;2022-08-03T11:00:07;5.55;;;1.10;;
69534;SDS011;56754;51.568;5.048;2022-08-03T11:05:27;5.60;;;1.50;;
69534;SDS011;56754;51.568;5.048;2022-08-03T11:10:46;5.20;;;1.30;;
69534;SDS011;56754;51.568;5.048;2022-08-03T11:13:20;5.90;;;1.27;;
69534;SDS011;56754;51.568;5.048;2022-08-03T11:15:48;4.65;;;1.17;;
69534;SDS011;56754;51.568;5.048;2022-08-03T11:18:16;4.30;;;0.93;;
69534;SDS011;56754;51.568;5.048;2022-08-03T11:20:46;3.00;;;0.90;;
69534;SDS011;56754;51.568;5.048;2022-08-03T11:23:41;4.25;;;1.13;;
69534;SDS011;56754;51.568;5.048;2022-08-03T11:26:12;5.50;;;1.10;;
69534;SDS011;56754;51.568;5.048;2022-08-03T11:28:42;5.47;;;1.10;;
69534;SDS011;56754;51.568;5.048;2022-08-03T11:36:30;5.15;;;1.20;;
69534;SDS011;56754;51.568;5.048;2022-08-03T11:39:40;5.18;;;1.27;;
69534;SDS011;56754;51.568;5.048;2022-08-03T11:44:47;3.55;;;1.05;;
69534;SDS011;56754;51.568;5.048;2022-08-03T11:47:14;6.13;;;1.20;;
69534;SDS011;56754;51.568;5.048;2022-08-03T11:49:41;5.00;;;0.98;;
69534;SDS011;56754;51.568;5.048;2022-08-03T11:52:19;5.10;;;1.27;;
69534;SDS011;56754;51.568;5.048;2022-08-03T11:54:44;6.57;;;1.23;;
69534;SDS011;56754;51.568;5.048;2022-08-03T11:57:10;7.43;;;1.30;;
69534;SDS011;56754;51.568;5.048;2022-08-03T11:59:36;5.53;;;1.20;;
69534;SDS011;56754;51.568;5.048;2022-08-03T12:02:20;4.25;;;0.95;;
69534;SDS011;56754;51.568;5.048;2022-08-03T12:04:51;4.22;;;1.20;;
69534;SDS011;56754;51.568;5.048;2022-08-03T12:07:21;4.38;;;0.98;;
69534;SDS011;56754;51.568;5.048;2022-08-03T12:10:05;5.33;;;1.10;;
69534;SDS011;56754;51.568;5.048;2022-08-03T12:12:35;5.00;;;1.10;;
69534;SDS011;56754;51.568;5.048;2022-08-03T12:15:02;4.70;;;1.10;;
69534;SDS011;56754;51.568;5.048;2022-08-03T12:17:34;5.32;;;1.48;;
69534;SDS011;56754;51.568;5.048;2022-08-03T12:20:01;3.42;;;0.90;;
69534;SDS011;56754;51.568;5.048;2022-08-03T12:22:32;5.63;;;1.10;;
69534;SDS011;56754;51.568;5.048;2022-08-03T12:24:58;4.43;;;1.20;;
69534;SDS011;56754;51.568;5.048;2022-08-03T12:27:24;3.73;;;0.90;;
69534;SDS011;56754;51.568;5.048;2022-08-03T12:29:54;4.57;;;1.20;;
69534;SDS011;56754;51.568;5.048;2022-08-03T12:32:20;4.47;;;1.20;;
69534;SDS011;56754;51.568;5.048;2022-08-03T12:34:46;4.60;;;1.05;;
69534;SDS011;56754;51.568;5.048;2022-08-03T12:37:12;3.97;;;1.10;;
69534;SDS011;56754;51.568;5.048;2022-08-03T12:39:37;5.43;;;1.25;;
69534;SDS011;56754;51.568;5.048;2022-08-03T12:42:02;4.90;;;1.10;;
69534;SDS011;56754;51.568;5.048;2022-08-03T12:44:29;4.57;;;1.00;;
69534;SDS011;56754;51.568;5.048;2022-08-03T12:46:59;4.55;;;1.20;;
69534;SDS011;56754;51.568;5.048;2022-08-03T12:49:25;4.65;;;1.00;;
69534;SDS011;56754;51.568;5.048;2022-08-03T12:54:18;3.37;;;1.00;;
69534;SDS011;56754;51.568;5.048;2022-08-03T12:57:04;6.20;;;0.95;;
69534;SDS011;56754;51.568;5.048;2022-08-03T12:59:30;3.95;;;1.00;;
69534;SDS011;56754;51.568;5.048;2022-08-03T13:01:56;3.65;;;1.02;;
69534;SDS011;56754;51.568;5.048;2022-08-03T13:04:31;4.13;;;1.00;;
69534;SDS011;56754;51.568;5.048;2022-08-03T13:07:02;3.50;;;1.00;;
69534;SDS011;56754;51.568;5.048;2022-08-03T13:09:39;4.18;;;1.00;;
69534;SDS011;56754;51.568;5.048;2022-08-03T13:12:13;3.47;;;1.10;;
69534;SDS011;56754;51.568;5.048;2022-08-03T13:14:43;4.15;;;1.13;;
69534;SDS011;56754;51.568;5.048;2022-08-03T13:17:10;4.23;;;1.33;;
69534;SDS011;56754;51.568;5.048;2022-08-03T13:19:36;3.57;;;1.10;;
69534;SDS011;56754;51.568;5.048;2022-08-03T13:24:40;4.13;;;1.15;;
69534;SDS011;56754;51.568;5.048;2022-08-03T13:27:06;5.25;;;1.00;;
69534;SDS011;56754;51.568;5.048;2022-08-03T13:29:32;4.70;;;1.00;;
69534;SDS011;56754;51.568;5.048;2022-08-03T13:31:57;4.25;;;0.88;;
69534;SDS011;56754;51.568;5.048;2022-08-03T13:34:23;4.23;;;1.07;;
69534;SDS011;56754;51.568;5.048;2022-08-03T13:36:48;3.83;;;1.10;;
69534;SDS011;56754;51.568;5.048;2022-08-03T13:39:13;3.20;;;0.90;;
69534;SDS011;56754;51.568;5.048;2022-08-03T13:41:39;5.13;;;1.30;;
69534;SDS011;56754;51.568;5.048;2022-08-03T13:44:04;4.27;;;1.23;;
69534;SDS011;56754;51.568;5.048;2022-08-03T13:46:29;5.88;;;1.08;;
69534;SDS011;56754;51.568;5.048;2022-08-03T13:48:54;4.07;;;1.27;;
69534;SDS011;56754;51.568;5.048;2022-08-03T13:51:20;2.97;;;1.10;;
69534;SDS011;56754;51.568;5.048;2022-08-03T13:53:45;4.80;;;1.10;;
69534;SDS011;56754;51.568;5.048;2022-08-03T13:56:10;3.60;;;0.90;;
69534;SDS011;56754;51.568;5.048;2022-08-03T13:58:35;4.40;;;0.90;;
69534;SDS011;56754;51.568;5.048;2022-08-03T14:01:00;4.23;;;1.10;;
69534;SDS011;56754;51.568;5.048;2022-08-03T14:03:26;4.60;;;1.20;;
69534;SDS011;56754;51.568;5.048;2022-08-03T14:05:51;3.27;;;0.90;;
69534;SDS011;56754;51.568;5.048;2022-08-03T14:08:16;2.97;;;1.00;;
69534;SDS011;56754;51.568;5.048;2022-08-03T14:10:44;4.88;;;1.10;;
69534;SDS011;56754;51.568;5.048;2022-08-03T14:13:10;3.40;;;1.10;;
69534;SDS011;56754;51.568;5.048;2022-08-03T14:15:37;5.15;;;1.17;;
69534;SDS011;56754;51.568;5.048;2022-08-03T14:18:02;3.90;;;0.90;;
69534;SDS011;56754;51.568;5.048;2022-08-03T14:20:28;4.30;;;1.10;;
69534;SDS011;56754;51.568;5.048;2022-08-03T14:22:53;4.30;;;1.27;;
69534;SDS011;56754;51.568;5.048;2022-08-03T14:25:19;4.43;;;1.00;;
69534;SDS011;56754;51.568;5.048;2022-08-03T14:27:44;3.70;;;1.33;;
69534;SDS011;56754;51.568;5.048;2022-08-03T14:30:10;4.53;;;1.13;;
69534;SDS011;56754;51.568;5.048;2022-08-03T14:32:35;3.88;;;0.90;;
69534;SDS011;56754;51.568;5.048;2022-08-03T14:35:01;3.40;;;1.00;;
69534;SDS011;56754;51.568;5.048;2022-08-03T14:37:26;3.93;;;1.03;;
69534;SDS011;56754;51.568;5.048;2022-08-03T14:39:51;3.83;;;1.27;;
69534;SDS011;56754;51.568;5.048;2022-08-03T14:42:17;3.63;;;0.90;;
69534;SDS011;56754;51.568;5.048;2022-08-03T14:44:42;4.40;;;1.07;;
69534;SDS011;56754;51.568;5.048;2022-08-03T14:47:07;2.77;;;1.00;;
69534;SDS011;56754;51.568;5.048;2022-08-03T14:49:32;3.27;;;1.20;;
69534;SDS011;56754;51.568;5.048;2022-08-03T14:51:58;3.13;;;1.00;;
69534;SDS011;56754;51.568;5.048;2022-08-03T14:54:24;3.73;;;1.00;;
69534;SDS011;56754;51.568;5.048;2022-08-03T14:56:49;5.20;;;1.00;;
69534;SDS011;56754;51.568;5.048;2022-08-03T14:59:14;3.28;;;1.10;;
69534;SDS011;56754;51.568;5.048;2022-08-03T15:01:39;3.47;;;0.90;;
69534;SDS011;56754;51.568;5.048;2022-08-03T15:04:05;3.40;;;1.10;;
69534;SDS011;56754;51.568;5.048;2022-08-03T15:06:30;2.43;;;1.00;;
69534;SDS011;56754;51.568;5.048;2022-08-03T15:08:55;3.40;;;1.10;;
69534;SDS011;56754;51.568;5.048;2022-08-03T15:11:21;3.30;;;1.00;;
69534;SDS011;56754;51.568;5.048;2022-08-03T15:13:46;3.27;;;1.03;;
69534;SDS011;56754;51.568;5.048;2022-08-03T15:16:11;4.30;;;1.10;;
69534;SDS011;56754;51.568;5.048;2022-08-03T15:18:36;3.63;;;1.00;;
69534;SDS011;56754;51.568;5.048;2022-08-03T15:21:01;2.87;;;1.10;;
69534;SDS011;56754;51.568;5.048;2022-08-03T15:23:27;2.70;;;0.80;;
69534;SDS011;56754;51.568;5.048;2022-08-03T15:25:52;3.90;;;1.13;;
69534;SDS011;56754;51.568;5.048;2022-08-03T15:28:17;3.37;;;0.97;;